sensor_id;sensor_type;location;lat;lon;timestamp;P1;durP1;ratioP1;P2;durP2;ratioP2
19705;SDS011;10003;52.506;4.700;2023-09-18T00:01:26;8.87;;;4.77;;
19705;SDS011;10003;52.506;4.700;2023-09-18T00:03:57;4.57;;;4.13;;
19705;SDS011;10003;52.506;4.700;2023-09-18T00:06:25;0.30;;;0.30;;
19705;SDS011;10003;52.506;4.700;2023-09-18T00:08:54;3.77;;;3.47;;
19705;SDS011;10003;52.506;4.700;2023-09-18T00:11:22;9.73;;;4.53;;
19705;SDS011;10003;52.506;4.700;2023-09-18T00:13:51;3.00;;;2.80;;
19705;SDS011;10003;52.506;4.700;2023-09-18T00:16:19;1.80;;;1.80;;
19705;SDS011;10003;52.506;4.700;2023-09-18T00:18:48;0.97;;;0.97;;
19705;SDS011;10003;52.506;4.700;2023-09-18T00:21:19;4.47;;;2.50;;
19705;SDS011;10003;52.506;4.700;2023-09-18T00:23:47;5.37;;;4.67;;
19705;SDS011;10003;52.506;4.700;2023-09-18T00:26:16;5.83;;;5.03;;
19705;SDS011;10003;52.506;4.700;2023-09-18T00:28:44;6.10;;;4.63;;
19705;SDS011;10003;52.506;4.700;2023-09-18T00:31:13;8.57;;;7.53;;
19705;SDS011;10003;52.506;4.700;2023-09-18T00:33:41;7.97;;;4.30;;
19705;SDS011;10003;52.506;4.700;2023-09-18T00:36:10;9.10;;;7.17;;
19705;SDS011;10003;52.506;4.700;2023-09-18T00:38:39;12.47;;;8.23;;
19705;SDS011;10003;52.506;4.700;2023-09-18T00:41:08;7.17;;;6.20;;
19705;SDS011;10003;52.506;4.700;2023-09-18T00:43:37;3.37;;;3.10;;
19705;SDS011;10003;52.506;4.700;2023-09-18T00:46:05;7.30;;;3.07;;
19705;SDS011;10003;52.506;4.700;2023-09-18T00:48:34;8.83;;;6.97;;
19705;SDS011;10003;52.506;4.700;2023-09-18T00:51:02;9.90;;;8.00;;
19705;SDS011;10003;52.506;4.700;2023-09-18T00:53:31;2.80;;;2.67;;
19705;SDS011;10003;52.506;4.700;2023-09-18T00:56:01;2.80;;;2.63;;
19705;SDS011;10003;52.506;4.700;2023-09-18T00:58:32;7.60;;;6.27;;
19705;SDS011;10003;52.506;4.700;2023-09-18T01:01:01;1.43;;;1.43;;
19705;SDS011;10003;52.506;4.700;2023-09-18T01:03:30;2.13;;;2.00;;
19705;SDS011;10003;52.506;4.700;2023-09-18T01:05:59;0.50;;;0.50;;
19705;SDS011;10003;52.506;4.700;2023-09-18T01:08:27;4.93;;;4.53;;
19705;SDS011;10003;52.506;4.700;2023-09-18T01:11:00;3.97;;;3.67;;
19705;SDS011;10003;52.506;4.700;2023-09-18T01:13:33;2.37;;;2.00;;
19705;SDS011;10003;52.506;4.700;2023-09-18T01:16:06;1.50;;;1.50;;
19705;SDS011;10003;52.506;4.700;2023-09-18T01:18:36;5.87;;;3.27;;
19705;SDS011;10003;52.506;4.700;2023-09-18T01:21:05;3.13;;;2.83;;
19705;SDS011;10003;52.506;4.700;2023-09-18T01:23:35;1.77;;;1.67;;
19705;SDS011;10003;52.506;4.700;2023-09-18T01:26:03;6.93;;;5.07;;
19705;SDS011;10003;52.506;4.700;2023-09-18T01:28:32;2.87;;;2.67;;
19705;SDS011;10003;52.506;4.700;2023-09-18T01:31:00;5.10;;;4.60;;
19705;SDS011;10003;52.506;4.700;2023-09-18T01:33:30;10.10;;;7.53;;
19705;SDS011;10003;52.506;4.700;2023-09-18T01:35:59;3.43;;;3.13;;
19705;SDS011;10003;52.506;4.700;2023-09-18T01:38:28;2.43;;;2.27;;
19705;SDS011;10003;52.506;4.700;2023-09-18T01:40:59;2.73;;;1.93;;
19705;SDS011;10003;52.506;4.700;2023-09-18T01:43:29;4.87;;;4.37;;
19705;SDS011;10003;52.506;4.700;2023-09-18T01:45:58;1.00;;;1.00;;
19705;SDS011;10003;52.506;4.700;2023-09-18T01:48:27;6.37;;;5.97;;
19705;SDS011;10003;52.506;4.700;2023-09-18T01:50:55;2.57;;;2.27;;
19705;SDS011;10003;52.506;4.700;2023-09-18T01:53:23;2.37;;;2.13;;
19705;SDS011;10003;52.506;4.700;2023-09-18T01:55:53;3.20;;;3.00;;
19705;SDS011;10003;52.506;4.700;2023-09-18T01:58:23;0.43;;;0.43;;
19705;SDS011;10003;52.506;4.700;2023-09-18T02:00:51;0.20;;;0.20;;
19705;SDS011;10003;52.506;4.700;2023-09-18T02:03:21;19.60;;;11.83;;
19705;SDS011;10003;52.506;4.700;2023-09-18T02:06:09;17.40;;;12.20;;
19705;SDS011;10003;52.506;4.700;2023-09-18T02:08:38;22.67;;;16.13;;
19705;SDS011;10003;52.506;4.700;2023-09-18T02:11:06;3.40;;;2.93;;
19705;SDS011;10003;52.506;4.700;2023-09-18T02:13:36;5.00;;;4.17;;
19705;SDS011;10003;52.506;4.700;2023-09-18T02:16:05;0.73;;;0.73;;
19705;SDS011;10003;52.506;4.700;2023-09-18T02:18:34;0.30;;;0.30;;
19705;SDS011;10003;52.506;4.700;2023-09-18T02:21:02;3.33;;;3.00;;
19705;SDS011;10003;52.506;4.700;2023-09-18T02:23:31;1.80;;;1.70;;
19705;SDS011;10003;52.506;4.700;2023-09-18T02:25:59;0.63;;;0.63;;
19705;SDS011;10003;52.506;4.700;2023-09-18T02:28:28;0.63;;;0.63;;
19705;SDS011;10003;52.506;4.700;2023-09-18T02:30:58;0.30;;;0.30;;
19705;SDS011;10003;52.506;4.700;2023-09-18T02:33:26;0.47;;;0.47;;
19705;SDS011;10003;52.506;4.700;2023-09-18T02:35:55;8.03;;;5.23;;
19705;SDS011;10003;52.506;4.700;2023-09-18T02:38:23;0.80;;;0.80;;
19705;SDS011;10003;52.506;4.700;2023-09-18T02:40:52;0.80;;;0.80;;
19705;SDS011;10003;52.506;4.700;2023-09-18T02:43:20;0.23;;;0.23;;
19705;SDS011;10003;52.506;4.700;2023-09-18T02:45:49;0.27;;;0.27;;
19705;SDS011;10003;52.506;4.700;2023-09-18T02:48:19;3.13;;;2.93;;
19705;SDS011;10003;52.506;4.700;2023-09-18T02:50:47;2.90;;;2.57;;
19705;SDS011;10003;52.506;4.700;2023-09-18T02:53:16;1.47;;;1.43;;
19705;SDS011;10003;52.506;4.700;2023-09-18T02:55:46;1.60;;;1.60;;
19705;SDS011;10003;52.506;4.700;2023-09-18T02:58:14;15.87;;;12.17;;
19705;SDS011;10003;52.506;4.700;2023-09-18T03:00:45;14.40;;;11.30;;
19705;SDS011;10003;52.506;4.700;2023-09-18T03:03:14;14.50;;;12.93;;
19705;SDS011;10003;52.506;4.700;2023-09-18T03:05:44;15.80;;;14.20;;
19705;SDS011;10003;52.506;4.700;2023-09-18T03:08:13;11.43;;;8.00;;
19705;SDS011;10003;52.506;4.700;2023-09-18T03:10:42;9.83;;;6.93;;
19705;SDS011;10003;52.506;4.700;2023-09-18T03:13:11;8.80;;;5.90;;
19705;SDS011;10003;52.506;4.700;2023-09-18T03:15:40;11.47;;;9.17;;
19705;SDS011;10003;52.506;4.700;2023-09-18T03:18:08;12.83;;;10.67;;
19705;SDS011;10003;52.506;4.700;2023-09-18T03:20:37;7.23;;;6.50;;
19705;SDS011;10003;52.506;4.700;2023-09-18T03:23:06;3.53;;;3.20;;
19705;SDS011;10003;52.506;4.700;2023-09-18T03:25:35;2.63;;;2.43;;
19705;SDS011;10003;52.506;4.700;2023-09-18T03:28:17;6.83;;;4.13;;
19705;SDS011;10003;52.506;4.700;2023-09-18T03:30:46;1.60;;;1.50;;
19705;SDS011;10003;52.506;4.700;2023-09-18T03:33:14;17.30;;;15.50;;
19705;SDS011;10003;52.506;4.700;2023-09-18T03:35:46;16.23;;;13.20;;
19705;SDS011;10003;52.506;4.700;2023-09-18T03:38:17;19.57;;;17.40;;
19705;SDS011;10003;52.506;4.700;2023-09-18T03:40:47;7.77;;;4.83;;
19705;SDS011;10003;52.506;4.700;2023-09-18T03:43:16;15.03;;;11.90;;
19705;SDS011;10003;52.506;4.700;2023-09-18T03:45:45;15.80;;;13.40;;
19705;SDS011;10003;52.506;4.700;2023-09-18T03:48:14;21.43;;;18.30;;
19705;SDS011;10003;52.506;4.700;2023-09-18T03:50:43;18.77;;;15.93;;
19705;SDS011;10003;52.506;4.700;2023-09-18T03:53:11;14.23;;;11.20;;
19705;SDS011;10003;52.506;4.700;2023-09-18T03:55:41;18.97;;;13.80;;
19705;SDS011;10003;52.506;4.700;2023-09-18T03:58:10;18.13;;;15.10;;
19705;SDS011;10003;52.506;4.700;2023-09-18T04:00:39;22.87;;;18.50;;
19705;SDS011;10003;52.506;4.700;2023-09-18T04:03:07;20.17;;;17.37;;
19705;SDS011;10003;52.506;4.700;2023-09-18T04:05:36;27.13;;;20.30;;
19705;SDS011;10003;52.506;4.700;2023-09-18T04:08:05;24.67;;;21.27;;
19705;SDS011;10003;52.506;4.700;2023-09-18T04:10:33;21.20;;;14.57;;
19705;SDS011;10003;52.506;4.700;2023-09-18T04:13:03;24.53;;;19.63;;
19705;SDS011;10003;52.506;4.700;2023-09-18T04:15:32;13.93;;;12.10;;
19705;SDS011;10003;52.506;4.700;2023-09-18T04:18:04;24.03;;;17.80;;
19705;SDS011;10003;52.506;4.700;2023-09-18T04:20:32;29.27;;;26.17;;
19705;SDS011;10003;52.506;4.700;2023-09-18T04:23:17;33.97;;;29.07;;
19705;SDS011;10003;52.506;4.700;2023-09-18T04:25:46;45.23;;;40.63;;
19705;SDS011;10003;52.506;4.700;2023-09-18T04:28:16;46.57;;;32.80;;
19705;SDS011;10003;52.506;4.700;2023-09-18T04:30:45;77.10;;;53.70;;
19705;SDS011;10003;52.506;4.700;2023-09-18T04:33:14;81.50;;;49.87;;
19705;SDS011;10003;52.506;4.700;2023-09-18T04:35:46;79.70;;;35.83;;
19705;SDS011;10003;52.506;4.700;2023-09-18T04:38:15;76.33;;;33.67;;
19705;SDS011;10003;52.506;4.700;2023-09-18T04:40:46;0.83;;;0.80;;
19705;SDS011;10003;52.506;4.700;2023-09-18T04:43:16;2.47;;;2.37;;
19705;SDS011;10003;52.506;4.700;2023-09-18T04:45:44;42.57;;;22.77;;
19705;SDS011;10003;52.506;4.700;2023-09-18T04:48:13;14.33;;;7.30;;
19705;SDS011;10003;52.506;4.700;2023-09-18T04:50:42;10.17;;;6.60;;
19705;SDS011;10003;52.506;4.700;2023-09-18T04:53:10;33.83;;;17.03;;
19705;SDS011;10003;52.506;4.700;2023-09-18T04:55:39;10.50;;;6.40;;
19705;SDS011;10003;52.506;4.700;2023-09-18T04:58:07;2.70;;;2.50;;
19705;SDS011;10003;52.506;4.700;2023-09-18T05:00:37;0.30;;;0.30;;
19705;SDS011;10003;52.506;4.700;2023-09-18T05:03:06;1.10;;;1.00;;
19705;SDS011;10003;52.506;4.700;2023-09-18T05:05:35;2.33;;;0.73;;
19705;SDS011;10003;52.506;4.700;2023-09-18T05:08:05;3.23;;;2.93;;
19705;SDS011;10003;52.506;4.700;2023-09-18T05:10:35;7.97;;;5.50;;
19705;SDS011;10003;52.506;4.700;2023-09-18T05:13:04;24.20;;;12.60;;
19705;SDS011;10003;52.506;4.700;2023-09-18T05:15:33;3.77;;;3.40;;
19705;SDS011;10003;52.506;4.700;2023-09-18T05:18:03;10.93;;;5.40;;
19705;SDS011;10003;52.506;4.700;2023-09-18T05:20:33;1.57;;;1.47;;
19705;SDS011;10003;52.506;4.700;2023-09-18T05:23:02;1.90;;;1.47;;
19705;SDS011;10003;52.506;4.700;2023-09-18T05:25:31;5.47;;;4.03;;
19705;SDS011;10003;52.506;4.700;2023-09-18T05:28:00;6.43;;;4.37;;
19705;SDS011;10003;52.506;4.700;2023-09-18T05:30:32;5.90;;;5.40;;
19705;SDS011;10003;52.506;4.700;2023-09-18T05:33:03;29.37;;;18.33;;
19705;SDS011;10003;52.506;4.700;2023-09-18T05:35:32;23.73;;;14.87;;
19705;SDS011;10003;52.506;4.700;2023-09-18T05:38:01;28.87;;;15.80;;
19705;SDS011;10003;52.506;4.700;2023-09-18T05:40:30;21.63;;;7.30;;
19705;SDS011;10003;52.506;4.700;2023-09-18T05:42:59;18.07;;;11.00;;
19705;SDS011;10003;52.506;4.700;2023-09-18T05:45:28;9.23;;;5.90;;
19705;SDS011;10003;52.506;4.700;2023-09-18T05:47:58;12.57;;;6.53;;
19705;SDS011;10003;52.506;4.700;2023-09-18T05:50:32;15.80;;;10.80;;
19705;SDS011;10003;52.506;4.700;2023-09-18T05:53:02;6.77;;;3.93;;
19705;SDS011;10003;52.506;4.700;2023-09-18T05:55:31;6.33;;;2.77;;
19705;SDS011;10003;52.506;4.700;2023-09-18T05:58:00;6.73;;;3.47;;
19705;SDS011;10003;52.506;4.700;2023-09-18T06:00:30;3.03;;;1.73;;
19705;SDS011;10003;52.506;4.700;2023-09-18T06:02:59;3.57;;;2.93;;
19705;SDS011;10003;52.506;4.700;2023-09-18T06:05:28;12.00;;;7.87;;
19705;SDS011;10003;52.506;4.700;2023-09-18T06:08:00;11.03;;;7.77;;
19705;SDS011;10003;52.506;4.700;2023-09-18T06:10:28;3.50;;;2.63;;
19705;SDS011;10003;52.506;4.700;2023-09-18T06:12:57;10.17;;;5.27;;
19705;SDS011;10003;52.506;4.700;2023-09-18T06:15:31;5.87;;;3.53;;
19705;SDS011;10003;52.506;4.700;2023-09-18T06:17:59;9.67;;;6.23;;
19705;SDS011;10003;52.506;4.700;2023-09-18T06:20:28;11.00;;;6.07;;
19705;SDS011;10003;52.506;4.700;2023-09-18T06:22:57;6.77;;;3.50;;
19705;SDS011;10003;52.506;4.700;2023-09-18T06:25:27;15.50;;;7.17;;
19705;SDS011;10003;52.506;4.700;2023-09-18T06:27:57;9.03;;;5.27;;
19705;SDS011;10003;52.506;4.700;2023-09-18T06:30:27;10.27;;;6.43;;
19705;SDS011;10003;52.506;4.700;2023-09-18T06:32:56;11.97;;;7.13;;
19705;SDS011;10003;52.506;4.700;2023-09-18T06:35:24;1.03;;;1.03;;
19705;SDS011;10003;52.506;4.700;2023-09-18T06:37:53;13.97;;;5.60;;
19705;SDS011;10003;52.506;4.700;2023-09-18T06:40:25;3.60;;;3.13;;
19705;SDS011;10003;52.506;4.700;2023-09-18T06:42:59;28.10;;;1.97;;
19705;SDS011;10003;52.506;4.700;2023-09-18T06:45:28;1.50;;;1.40;;
19705;SDS011;10003;52.506;4.700;2023-09-18T06:47:56;8.23;;;4.00;;
19705;SDS011;10003;52.506;4.700;2023-09-18T06:50:26;7.87;;;4.70;;
19705;SDS011;10003;52.506;4.700;2023-09-18T06:52:55;7.13;;;5.33;;
19705;SDS011;10003;52.506;4.700;2023-09-18T06:55:24;14.83;;;8.13;;
19705;SDS011;10003;52.506;4.700;2023-09-18T06:57:52;15.07;;;7.67;;
19705;SDS011;10003;52.506;4.700;2023-09-18T07:00:22;6.50;;;3.80;;
19705;SDS011;10003;52.506;4.700;2023-09-18T07:02:51;0.43;;;0.43;;
19705;SDS011;10003;52.506;4.700;2023-09-18T07:05:20;4.83;;;2.63;;
19705;SDS011;10003;52.506;4.700;2023-09-18T07:07:49;6.30;;;2.70;;
19705;SDS011;10003;52.506;4.700;2023-09-18T07:10:18;7.57;;;5.23;;
19705;SDS011;10003;52.506;4.700;2023-09-18T07:12:46;10.80;;;5.80;;
19705;SDS011;10003;52.506;4.700;2023-09-18T07:15:15;15.70;;;10.17;;
19705;SDS011;10003;52.506;4.700;2023-09-18T07:17:46;13.37;;;8.37;;
19705;SDS011;10003;52.506;4.700;2023-09-18T07:20:15;15.43;;;11.50;;
19705;SDS011;10003;52.506;4.700;2023-09-18T07:22:46;15.53;;;11.80;;
19705;SDS011;10003;52.506;4.700;2023-09-18T07:25:15;18.57;;;13.67;;
19705;SDS011;10003;52.506;4.700;2023-09-18T07:27:44;10.90;;;6.90;;
19705;SDS011;10003;52.506;4.700;2023-09-18T07:30:13;17.77;;;14.67;;
19705;SDS011;10003;52.506;4.700;2023-09-18T07:32:45;1.73;;;1.17;;
19705;SDS011;10003;52.506;4.700;2023-09-18T07:35:14;16.93;;;11.03;;
19705;SDS011;10003;52.506;4.700;2023-09-18T07:37:43;14.30;;;10.50;;
19705;SDS011;10003;52.506;4.700;2023-09-18T07:40:13;15.17;;;12.90;;
19705;SDS011;10003;52.506;4.700;2023-09-18T07:42:43;14.03;;;9.17;;
19705;SDS011;10003;52.506;4.700;2023-09-18T07:45:12;15.93;;;12.40;;
19705;SDS011;10003;52.506;4.700;2023-09-18T07:47:40;19.50;;;15.93;;
19705;SDS011;10003;52.506;4.700;2023-09-18T07:50:10;16.87;;;11.40;;
19705;SDS011;10003;52.506;4.700;2023-09-18T07:52:39;14.00;;;12.40;;
19705;SDS011;10003;52.506;4.700;2023-09-18T07:55:08;13.93;;;10.10;;
19705;SDS011;10003;52.506;4.700;2023-09-18T07:57:37;15.37;;;11.23;;
19705;SDS011;10003;52.506;4.700;2023-09-18T08:00:06;14.07;;;9.13;;
19705;SDS011;10003;52.506;4.700;2023-09-18T08:02:39;17.90;;;13.80;;
19705;SDS011;10003;52.506;4.700;2023-09-18T08:05:10;3.07;;;2.17;;
19705;SDS011;10003;52.506;4.700;2023-09-18T08:07:40;10.53;;;7.43;;
19705;SDS011;10003;52.506;4.700;2023-09-18T08:10:09;10.37;;;7.53;;
19705;SDS011;10003;52.506;4.700;2023-09-18T08:12:39;8.87;;;6.07;;
19705;SDS011;10003;52.506;4.700;2023-09-18T08:15:08;10.27;;;9.27;;
19705;SDS011;10003;52.506;4.700;2023-09-18T08:17:40;3.60;;;3.30;;
19705;SDS011;10003;52.506;4.700;2023-09-18T08:20:10;8.53;;;5.73;;
19705;SDS011;10003;52.506;4.700;2023-09-18T08:22:43;9.03;;;8.23;;
19705;SDS011;10003;52.506;4.700;2023-09-18T08:25:13;8.57;;;5.37;;
19705;SDS011;10003;52.506;4.700;2023-09-18T08:27:42;10.93;;;6.80;;
19705;SDS011;10003;52.506;4.700;2023-09-18T08:30:11;10.40;;;7.23;;
19705;SDS011;10003;52.506;4.700;2023-09-18T08:32:42;7.60;;;6.80;;
19705;SDS011;10003;52.506;4.700;2023-09-18T08:35:15;3.67;;;3.20;;
19705;SDS011;10003;52.506;4.700;2023-09-18T08:37:43;3.53;;;2.67;;
19705;SDS011;10003;52.506;4.700;2023-09-18T08:40:14;6.03;;;3.60;;
19705;SDS011;10003;52.506;4.700;2023-09-18T08:42:44;3.20;;;2.50;;
19705;SDS011;10003;52.506;4.700;2023-09-18T08:45:14;2.30;;;2.07;;
19705;SDS011;10003;52.506;4.700;2023-09-18T08:47:43;2.50;;;1.97;;
19705;SDS011;10003;52.506;4.700;2023-09-18T08:50:12;2.37;;;2.00;;
19705;SDS011;10003;52.506;4.700;2023-09-18T08:52:43;8.93;;;2.77;;
19705;SDS011;10003;52.506;4.700;2023-09-18T08:55:11;6.83;;;4.40;;
19705;SDS011;10003;52.506;4.700;2023-09-18T08:57:40;3.40;;;1.93;;
19705;SDS011;10003;52.506;4.700;2023-09-18T09:00:10;2.67;;;1.83;;
19705;SDS011;10003;52.506;4.700;2023-09-18T09:02:43;5.60;;;1.90;;
19705;SDS011;10003;52.506;4.700;2023-09-18T09:05:12;3.47;;;1.93;;
19705;SDS011;10003;52.506;4.700;2023-09-18T09:07:40;4.70;;;2.93;;
19705;SDS011;10003;52.506;4.700;2023-09-18T09:10:10;7.67;;;1.77;;
19705;SDS011;10003;52.506;4.700;2023-09-18T09:12:50;5.73;;;2.47;;
19705;SDS011;10003;52.506;4.700;2023-09-18T09:15:22;2.00;;;1.43;;
19705;SDS011;10003;52.506;4.700;2023-09-18T09:17:51;5.20;;;2.33;;
19705;SDS011;10003;52.506;4.700;2023-09-18T09:20:21;8.07;;;3.80;;
19705;SDS011;10003;52.506;4.700;2023-09-18T09:22:50;1.40;;;1.30;;
19705;SDS011;10003;52.506;4.700;2023-09-18T09:25:22;4.43;;;2.40;;
19705;SDS011;10003;52.506;4.700;2023-09-18T09:27:53;1.70;;;1.60;;
19705;SDS011;10003;52.506;4.700;2023-09-18T09:30:22;7.10;;;3.03;;
19705;SDS011;10003;52.506;4.700;2023-09-18T09:32:54;4.87;;;2.40;;
19705;SDS011;10003;52.506;4.700;2023-09-18T09:35:23;1.97;;;1.67;;
19705;SDS011;10003;52.506;4.700;2023-09-18T09:37:54;3.80;;;1.83;;
19705;SDS011;10003;52.506;4.700;2023-09-18T09:40:26;5.30;;;2.23;;
19705;SDS011;10003;52.506;4.700;2023-09-18T09:42:55;6.83;;;3.80;;
19705;SDS011;10003;52.506;4.700;2023-09-18T09:45:28;9.00;;;3.87;;
19705;SDS011;10003;52.506;4.700;2023-09-18T09:47:58;10.47;;;5.30;;
19705;SDS011;10003;52.506;4.700;2023-09-18T09:50:28;6.53;;;4.17;;
19705;SDS011;10003;52.506;4.700;2023-09-18T09:53:01;3.03;;;2.73;;
19705;SDS011;10003;52.506;4.700;2023-09-18T09:55:33;4.17;;;3.57;;
19705;SDS011;10003;52.506;4.700;2023-09-18T09:58:02;3.00;;;2.37;;
19705;SDS011;10003;52.506;4.700;2023-09-18T10:00:32;7.20;;;5.10;;
19705;SDS011;10003;52.506;4.700;2023-09-18T10:03:10;3.20;;;2.90;;
19705;SDS011;10003;52.506;4.700;2023-09-18T10:05:40;5.00;;;3.93;;
19705;SDS011;10003;52.506;4.700;2023-09-18T10:08:10;6.57;;;4.83;;
19705;SDS011;10003;52.506;4.700;2023-09-18T10:10:43;2.30;;;2.00;;
19705;SDS011;10003;52.506;4.700;2023-09-18T10:13:16;5.83;;;3.70;;
19705;SDS011;10003;52.506;4.700;2023-09-18T10:15:46;1.60;;;1.50;;
19705;SDS011;10003;52.506;4.700;2023-09-18T10:18:26;8.77;;;4.83;;
19705;SDS011;10003;52.506;4.700;2023-09-18T10:20:57;5.67;;;4.50;;
19705;SDS011;10003;52.506;4.700;2023-09-18T10:23:34;7.93;;;3.30;;
19705;SDS011;10003;52.506;4.700;2023-09-18T10:26:11;8.43;;;4.27;;
19705;SDS011;10003;52.506;4.700;2023-09-18T10:28:42;1.87;;;1.77;;
19705;SDS011;10003;52.506;4.700;2023-09-18T10:31:12;5.07;;;2.30;;
19705;SDS011;10003;52.506;4.700;2023-09-18T10:33:41;4.07;;;3.33;;
19705;SDS011;10003;52.506;4.700;2023-09-18T10:36:11;3.07;;;2.10;;
19705;SDS011;10003;52.506;4.700;2023-09-18T10:38:40;4.67;;;3.17;;
19705;SDS011;10003;52.506;4.700;2023-09-18T10:41:12;3.03;;;2.77;;
19705;SDS011;10003;52.506;4.700;2023-09-18T10:43:40;3.27;;;2.80;;
19705;SDS011;10003;52.506;4.700;2023-09-18T10:46:10;7.40;;;2.67;;
19705;SDS011;10003;52.506;4.700;2023-09-18T10:48:40;5.80;;;3.77;;
19705;SDS011;10003;52.506;4.700;2023-09-18T10:51:10;7.57;;;4.20;;
19705;SDS011;10003;52.506;4.700;2023-09-18T10:53:40;4.93;;;3.50;;
19705;SDS011;10003;52.506;4.700;2023-09-18T10:56:09;6.17;;;3.73;;
19705;SDS011;10003;52.506;4.700;2023-09-18T10:58:40;16.77;;;3.30;;
19705;SDS011;10003;52.506;4.700;2023-09-18T11:01:10;5.77;;;2.60;;
19705;SDS011;10003;52.506;4.700;2023-09-18T11:03:39;2.37;;;1.90;;
19705;SDS011;10003;52.506;4.700;2023-09-18T11:06:09;5.13;;;3.53;;
19705;SDS011;10003;52.506;4.700;2023-09-18T11:08:43;6.73;;;3.57;;
19705;SDS011;10003;52.506;4.700;2023-09-18T11:11:13;4.50;;;2.77;;
19705;SDS011;10003;52.506;4.700;2023-09-18T11:13:45;5.23;;;3.43;;
19705;SDS011;10003;52.506;4.700;2023-09-18T11:16:18;2.33;;;2.00;;
19705;SDS011;10003;52.506;4.700;2023-09-18T11:18:50;3.97;;;2.47;;
19705;SDS011;10003;52.506;4.700;2023-09-18T11:21:23;3.70;;;3.10;;
19705;SDS011;10003;52.506;4.700;2023-09-18T11:23:58;4.53;;;1.83;;
19705;SDS011;10003;52.506;4.700;2023-09-18T11:26:30;1.60;;;1.50;;
19705;SDS011;10003;52.506;4.700;2023-09-18T11:29:03;7.27;;;2.83;;
19705;SDS011;10003;52.506;4.700;2023-09-18T11:31:41;3.10;;;2.80;;
19705;SDS011;10003;52.506;4.700;2023-09-18T11:34:11;3.20;;;2.30;;
19705;SDS011;10003;52.506;4.700;2023-09-18T11:36:40;4.83;;;2.77;;
19705;SDS011;10003;52.506;4.700;2023-09-18T11:39:09;4.80;;;3.27;;
19705;SDS011;10003;52.506;4.700;2023-09-18T11:41:38;4.73;;;3.23;;
19705;SDS011;10003;52.506;4.700;2023-09-18T11:46:55;1.70;;;1.60;;
19705;SDS011;10003;52.506;4.700;2023-09-18T11:49:24;5.27;;;2.17;;
19705;SDS011;10003;52.506;4.700;2023-09-18T11:51:54;3.17;;;2.13;;
19705;SDS011;10003;52.506;4.700;2023-09-18T11:54:29;5.60;;;2.70;;
19705;SDS011;10003;52.506;4.700;2023-09-18T11:57:02;8.57;;;3.30;;
19705;SDS011;10003;52.506;4.700;2023-09-18T11:59:36;6.80;;;3.10;;
19705;SDS011;10003;52.506;4.700;2023-09-18T12:02:12;5.80;;;3.47;;
19705;SDS011;10003;52.506;4.700;2023-09-18T12:04:47;1.77;;;1.67;;
19705;SDS011;10003;52.506;4.700;2023-09-18T12:07:19;4.67;;;3.17;;
19705;SDS011;10003;52.506;4.700;2023-09-18T12:09:48;2.63;;;2.10;;
19705;SDS011;10003;52.506;4.700;2023-09-18T12:12:17;7.40;;;4.20;;
19705;SDS011;10003;52.506;4.700;2023-09-18T12:14:45;1.77;;;1.67;;
19705;SDS011;10003;52.506;4.700;2023-09-18T12:17:15;0.90;;;0.90;;
19705;SDS011;10003;52.506;4.700;2023-09-18T12:19:51;2.17;;;2.00;;
19705;SDS011;10003;52.506;4.700;2023-09-18T12:22:23;5.47;;;2.40;;
19705;SDS011;10003;52.506;4.700;2023-09-18T12:24:52;3.10;;;2.20;;
19705;SDS011;10003;52.506;4.700;2023-09-18T12:27:23;1.80;;;1.70;;
19705;SDS011;10003;52.506;4.700;2023-09-18T12:29:53;1.80;;;1.70;;
19705;SDS011;10003;52.506;4.700;2023-09-18T12:32:24;1.80;;;1.63;;
19705;SDS011;10003;52.506;4.700;2023-09-18T12:34:53;2.77;;;2.53;;
19705;SDS011;10003;52.506;4.700;2023-09-18T12:37:21;3.57;;;2.90;;
19705;SDS011;10003;52.506;4.700;2023-09-18T12:39:51;4.93;;;3.53;;
19705;SDS011;10003;52.506;4.700;2023-09-18T12:42:19;2.93;;;2.70;;
19705;SDS011;10003;52.506;4.700;2023-09-18T12:44:48;1.87;;;1.60;;
19705;SDS011;10003;52.506;4.700;2023-09-18T12:47:16;1.70;;;1.17;;
19705;SDS011;10003;52.506;4.700;2023-09-18T12:49:46;4.57;;;2.73;;
19705;SDS011;10003;52.506;4.700;2023-09-18T12:52:21;2.53;;;1.77;;
19705;SDS011;10003;52.506;4.700;2023-09-18T12:54:50;3.57;;;1.87;;
19705;SDS011;10003;52.506;4.700;2023-09-18T12:57:20;3.40;;;2.60;;
19705;SDS011;10003;52.506;4.700;2023-09-18T12:59:49;4.20;;;2.47;;
19705;SDS011;10003;52.506;4.700;2023-09-18T13:02:20;1.87;;;1.67;;
19705;SDS011;10003;52.506;4.700;2023-09-18T13:04:56;6.00;;;2.90;;
19705;SDS011;10003;52.506;4.700;2023-09-18T13:07:26;2.60;;;2.40;;
19705;SDS011;10003;52.506;4.700;2023-09-18T13:09:58;4.00;;;3.13;;
19705;SDS011;10003;52.506;4.700;2023-09-18T13:12:38;3.70;;;2.60;;
19705;SDS011;10003;52.506;4.700;2023-09-18T13:15:07;4.20;;;3.03;;
19705;SDS011;10003;52.506;4.700;2023-09-18T13:17:39;3.17;;;2.73;;
19705;SDS011;10003;52.506;4.700;2023-09-18T13:20:13;4.03;;;2.83;;
19705;SDS011;10003;52.506;4.700;2023-09-18T13:22:42;2.63;;;2.00;;
19705;SDS011;10003;52.506;4.700;2023-09-18T13:25:10;4.57;;;2.67;;
19705;SDS011;10003;52.506;4.700;2023-09-18T13:27:39;1.57;;;1.47;;
19705;SDS011;10003;52.506;4.700;2023-09-18T13:30:08;3.80;;;2.37;;
19705;SDS011;10003;52.506;4.700;2023-09-18T13:32:37;6.13;;;3.03;;
19705;SDS011;10003;52.506;4.700;2023-09-18T13:35:07;2.23;;;2.03;;
19705;SDS011;10003;52.506;4.700;2023-09-18T13:37:37;4.67;;;2.47;;
19705;SDS011;10003;52.506;4.700;2023-09-18T13:40:06;3.30;;;2.93;;
19705;SDS011;10003;52.506;4.700;2023-09-18T13:42:35;3.87;;;2.63;;
19705;SDS011;10003;52.506;4.700;2023-09-18T13:45:04;2.37;;;1.90;;
19705;SDS011;10003;52.506;4.700;2023-09-18T13:47:34;3.10;;;2.87;;
19705;SDS011;10003;52.506;4.700;2023-09-18T13:50:04;3.43;;;3.03;;
19705;SDS011;10003;52.506;4.700;2023-09-18T13:52:33;3.70;;;3.10;;
19705;SDS011;10003;52.506;4.700;2023-09-18T13:55:04;5.80;;;3.70;;
19705;SDS011;10003;52.506;4.700;2023-09-18T13:57:34;2.80;;;2.60;;
19705;SDS011;10003;52.506;4.700;2023-09-18T14:00:03;4.00;;;3.63;;
19705;SDS011;10003;52.506;4.700;2023-09-18T14:02:33;4.63;;;3.50;;
19705;SDS011;10003;52.506;4.700;2023-09-18T14:05:02;4.33;;;3.77;;
19705;SDS011;10003;52.506;4.700;2023-09-18T14:07:31;3.20;;;2.90;;
19705;SDS011;10003;52.506;4.700;2023-09-18T14:09:59;4.60;;;4.20;;
19705;SDS011;10003;52.506;4.700;2023-09-18T14:12:31;5.10;;;4.17;;
19705;SDS011;10003;52.506;4.700;2023-09-18T14:15:00;4.23;;;3.83;;
19705;SDS011;10003;52.506;4.700;2023-09-18T14:17:29;4.63;;;3.93;;
19705;SDS011;10003;52.506;4.700;2023-09-18T14:19:58;4.40;;;4.00;;
19705;SDS011;10003;52.506;4.700;2023-09-18T14:22:26;3.10;;;2.80;;
19705;SDS011;10003;52.506;4.700;2023-09-18T14:24:55;5.40;;;4.90;;
19705;SDS011;10003;52.506;4.700;2023-09-18T14:27:24;4.37;;;3.77;;
19705;SDS011;10003;52.506;4.700;2023-09-18T14:29:54;5.90;;;5.00;;
19705;SDS011;10003;52.506;4.700;2023-09-18T14:32:22;7.50;;;4.47;;
19705;SDS011;10003;52.506;4.700;2023-09-18T14:34:51;7.60;;;6.23;;
19705;SDS011;10003;52.506;4.700;2023-09-18T14:37:23;5.67;;;5.07;;
19705;SDS011;10003;52.506;4.700;2023-09-18T14:39:51;6.83;;;6.00;;
19705;SDS011;10003;52.506;4.700;2023-09-18T14:42:20;8.60;;;7.00;;
19705;SDS011;10003;52.506;4.700;2023-09-18T14:44:53;8.10;;;7.30;;
19705;SDS011;10003;52.506;4.700;2023-09-18T14:47:30;7.80;;;6.67;;
19705;SDS011;10003;52.506;4.700;2023-09-18T14:49:59;8.63;;;6.97;;
19705;SDS011;10003;52.506;4.700;2023-09-18T14:52:28;3.47;;;2.87;;
19705;SDS011;10003;52.506;4.700;2023-09-18T14:54:56;10.43;;;3.03;;
19705;SDS011;10003;52.506;4.700;2023-09-18T14:57:26;3.40;;;2.73;;
19705;SDS011;10003;52.506;4.700;2023-09-18T14:59:54;10.43;;;5.33;;
19705;SDS011;10003;52.506;4.700;2023-09-18T15:02:23;6.50;;;4.50;;